sensor_id;sensor_type;location;lat;lon;timestamp;pressure;altitude;pressure_sealevel;temperature;humidity
7109;BME280;29079;41.930;25.558;2023-06-26T00:02:36;99090.75;;;21.21;100.00
7109;BME280;29079;41.930;25.558;2023-06-26T00:05:24;99078.06;;;21.15;100.00
7109;BME280;29079;41.930;25.558;2023-06-26T00:08:14;99075.63;;;21.38;100.00
7109;BME280;29079;41.930;25.558;2023-06-26T00:11:03;99074.75;;;21.06;100.00
7109;BME280;29079;41.930;25.558;2023-06-26T00:13:51;99075.78;;;21.05;100.00
7109;BME280;29079;41.930;25.558;2023-06-26T00:16:39;99060.84;;;20.82;100.00
7109;BME280;29079;41.930;25.558;2023-06-26T00:19:29;99056.41;;;21.01;100.00
7109;BME280;29079;41.930;25.558;2023-06-26T00:22:17;99061.38;;;21.11;100.00
7109;BME280;29079;41.930;25.558;2023-06-26T00:25:05;99064.00;;;20.86;100.00
7109;BME280;29079;41.930;25.558;2023-06-26T00:27:54;99065.59;;;21.00;100.00
7109;BME280;29079;41.930;25.558;2023-06-26T00:30:42;99054.53;;;21.02;100.00
7109;BME280;29079;41.930;25.558;2023-06-26T00:33:30;99035.53;;;21.09;100.00
7109;BME280;29079;41.930;25.558;2023-06-26T00:36:18;99057.88;;;21.36;100.00
7109;BME280;29079;41.930;25.558;2023-06-26T00:39:05;99058.78;;;21.23;100.00
7109;BME280;29079;41.930;25.558;2023-06-26T00:41:53;99054.66;;;21.20;100.00
7109;BME280;29079;41.930;25.558;2023-06-26T00:44:43;99061.22;;;20.99;100.00
7109;BME280;29079;41.930;25.558;2023-06-26T00:47:31;99058.28;;;21.01;100.00
7109;BME280;29079;41.930;25.558;2023-06-26T00:50:19;98975.16;;;20.09;100.00
7109;BME280;29079;41.930;25.558;2023-06-26T00:53:08;99041.72;;;20.70;100.00
7109;BME280;29079;41.930;25.558;2023-06-26T00:55:57;99039.16;;;20.82;100.00
7109;BME280;29079;41.930;25.558;2023-06-26T00:58:45;99043.19;;;20.66;100.00
7109;BME280;29079;41.930;25.558;2023-06-26T01:01:34;99041.28;;;20.74;100.00
7109;BME280;29079;41.930;25.558;2023-06-26T01:04:22;99043.19;;;20.73;100.00
7109;BME280;29079;41.930;25.558;2023-06-26T01:07:15;99034.75;;;20.88;100.00
7109;BME280;29079;41.930;25.558;2023-06-26T01:10:06;99033.59;;;20.70;100.00
7109;BME280;29079;41.930;25.558;2023-06-26T01:12:55;99030.09;;;21.09;100.00
7109;BME280;29079;41.930;25.558;2023-06-26T01:15:44;99030.28;;;21.07;100.00
7109;BME280;29079;41.930;25.558;2023-06-26T01:18:35;99025.44;;;21.16;100.00
7109;BME280;29079;41.930;25.558;2023-06-26T01:21:29;99031.34;;;21.06;100.00
7109;BME280;29079;41.930;25.558;2023-06-26T01:24:19;99033.16;;;20.74;100.00
7109;BME280;29079;41.930;25.558;2023-06-26T01:27:16;99030.66;;;20.65;100.00
7109;BME280;29079;41.930;25.558;2023-06-26T01:30:06;99031.72;;;20.64;100.00
7109;BME280;29079;41.930;25.558;2023-06-26T01:32:55;99027.00;;;20.98;100.00
7109;BME280;29079;41.930;25.558;2023-06-26T01:35:44;99015.34;;;20.91;100.00
7109;BME280;29079;41.930;25.558;2023-06-26T01:38:32;99014.41;;;21.11;100.00
7109;BME280;29079;41.930;25.558;2023-06-26T01:41:21;99021.84;;;20.90;100.00
7109;BME280;29079;41.930;25.558;2023-06-26T01:44:19;99022.88;;;20.89;100.00
7109;BME280;29079;41.930;25.558;2023-06-26T01:47:12;99023.72;;;21.28;100.00
7109;BME280;29079;41.930;25.558;2023-06-26T01:50:08;99025.06;;;21.05;100.00
7109;BME280;29079;41.930;25.558;2023-06-26T01:53:02;98962.28;;;20.70;100.00
7109;BME280;29079;41.930;25.558;2023-06-26T01:55:55;99027.94;;;20.79;100.00
7109;BME280;29079;41.930;25.558;2023-06-26T01:58:44;99025.78;;;20.94;100.00
7109;BME280;29079;41.930;25.558;2023-06-26T02:04:23;98970.19;;;20.13;100.00
7109;BME280;29079;41.930;25.558;2023-06-26T02:07:11;99030.09;;;21.09;100.00
7109;BME280;29079;41.930;25.558;2023-06-26T02:09:59;99035.56;;;20.95;100.00
7109;BME280;29079;41.930;25.558;2023-06-26T02:12:47;99037.47;;;20.88;100.00
7109;BME280;29079;41.930;25.558;2023-06-26T02:15:35;99033.13;;;20.80;100.00
7109;BME280;29079;41.930;25.558;2023-06-26T02:18:24;99040.25;;;20.75;100.00
7109;BME280;29079;41.930;25.558;2023-06-26T02:21:13;99038.94;;;20.84;100.00
7109;BME280;29079;41.930;25.558;2023-06-26T02:24:01;99046.47;;;20.89;100.00
7109;BME280;29079;41.930;25.558;2023-06-26T02:26:48;98984.28;;;20.28;100.00
7109;BME280;29079;41.930;25.558;2023-06-26T02:29:37;99031.91;;;20.76;100.00
7109;BME280;29079;41.930;25.558;2023-06-26T02:32:25;99031.66;;;20.84;100.00
7109;BME280;29079;41.930;25.558;2023-06-26T02:35:14;99035.47;;;20.77;100.00
7109;BME280;29079;41.930;25.558;2023-06-26T02:38:02;99038.16;;;20.77;100.00
7109;BME280;29079;41.930;25.558;2023-06-26T02:40:51;99035.63;;;20.82;100.00
7109;BME280;29079;41.930;25.558;2023-06-26T02:43:39;99039.59;;;20.86;100.00
7109;BME280;29079;41.930;25.558;2023-06-26T02:46:27;99048.47;;;21.00;100.00
7109;BME280;29079;41.930;25.558;2023-06-26T02:49:15;99047.25;;;20.96;100.00
7109;BME280;29079;41.930;25.558;2023-06-26T02:52:04;99053.13;;;20.86;100.00
7109;BME280;29079;41.930;25.558;2023-06-26T02:54:52;99048.66;;;21.12;100.00
7109;BME280;29079;41.930;25.558;2023-06-26T02:57:40;99055.69;;;20.74;100.00
7109;BME280;29079;41.930;25.558;2023-06-26T03:00:28;99056.00;;;20.98;100.00
7109;BME280;29079;41.930;25.558;2023-06-26T03:03:16;98866.47;;;19.92;100.00
7109;BME280;29079;41.930;25.558;2023-06-26T03:06:05;99059.38;;;21.32;100.00
7109;BME280;29079;41.930;25.558;2023-06-26T03:08:54;99060.47;;;21.24;100.00
7109;BME280;29079;41.930;25.558;2023-06-26T03:11:42;99070.78;;;21.40;100.00
7109;BME280;29079;41.930;25.558;2023-06-26T03:14:29;99000.22;;;20.70;100.00
7109;BME280;29079;41.930;25.558;2023-06-26T03:17:18;99068.78;;;21.29;100.00
7109;BME280;29079;41.930;25.558;2023-06-26T03:20:07;99074.38;;;21.34;100.00
7109;BME280;29079;41.930;25.558;2023-06-26T03:22:56;99079.47;;;21.24;100.00
7109;BME280;29079;41.930;25.558;2023-06-26T03:25:46;99078.94;;;21.09;100.00
7109;BME280;29079;41.930;25.558;2023-06-26T03:28:33;99082.16;;;21.24;100.00
7109;BME280;29079;41.930;25.558;2023-06-26T03:31:21;99047.00;;;21.04;100.00
7109;BME280;29079;41.930;25.558;2023-06-26T03:34:10;99085.31;;;21.21;100.00
7109;BME280;29079;41.930;25.558;2023-06-26T03:36:58;99088.69;;;21.55;100.00
7109;BME280;29079;41.930;25.558;2023-06-26T03:39:45;99082.59;;;21.21;100.00
7109;BME280;29079;41.930;25.558;2023-06-26T03:42:35;99052.19;;;21.12;100.00
7109;BME280;29079;41.930;25.558;2023-06-26T03:45:23;99039.13;;;21.66;100.00
7109;BME280;29079;41.930;25.558;2023-06-26T03:48:11;99076.44;;;21.78;100.00
7109;BME280;29079;41.930;25.558;2023-06-26T03:50:59;99075.28;;;21.21;100.00
7109;BME280;29079;41.930;25.558;2023-06-26T03:53:48;99072.03;;;21.45;100.00
7109;BME280;29079;41.930;25.558;2023-06-26T03:56:36;99064.84;;;21.25;100.00
7109;BME280;29079;41.930;25.558;2023-06-26T03:59:25;99071.53;;;21.22;100.00
7109;BME280;29079;41.930;25.558;2023-06-26T04:02:13;99077.63;;;21.18;100.00
7109;BME280;29079;41.930;25.558;2023-06-26T04:05:01;99076.31;;;21.27;100.00
7109;BME280;29079;41.930;25.558;2023-06-26T04:07:51;99082.72;;;21.39;100.00
7109;BME280;29079;41.930;25.558;2023-06-26T04:10:39;99088.91;;;21.53;100.00
7109;BME280;29079;41.930;25.558;2023-06-26T04:13:27;99092.13;;;21.37;100.00
7109;BME280;29079;41.930;25.558;2023-06-26T04:16:16;99091.97;;;21.25;100.00
7109;BME280;29079;41.930;25.558;2023-06-26T04:19:04;99097.53;;;21.44;100.00
7109;BME280;29079;41.930;25.558;2023-06-26T04:21:52;99083.78;;;21.32;100.00
7109;BME280;29079;41.930;25.558;2023-06-26T12:03:18;99133.59;;;26.05;69.33
7109;BME280;29079;41.930;25.558;2023-06-26T12:06:06;99126.66;;;26.14;70.72
7109;BME280;29079;41.930;25.558;2023-06-26T12:08:55;99120.22;;;25.92;70.80
7109;BME280;29079;41.930;25.558;2023-06-26T12:11:44;99117.97;;;25.88;68.25
7109;BME280;29079;41.930;25.558;2023-06-26T12:14:35;99117.63;;;25.85;70.96
7109;BME280;29079;41.930;25.558;2023-06-26T12:17:23;99122.44;;;25.95;72.78
7109;BME280;29079;41.930;25.558;2023-06-26T12:20:20;99133.13;;;25.79;75.02
7109;BME280;29079;41.930;25.558;2023-06-26T12:23:12;99138.75;;;25.72;75.92
7109;BME280;29079;41.930;25.558;2023-06-26T12:26:18;99146.47;;;25.93;74.45
7109;BME280;29079;41.930;25.558;2023-06-26T12:29:06;99149.84;;;25.83;73.83
7109;BME280;29079;41.930;25.558;2023-06-26T12:31:55;99149.31;;;25.69;75.20
7109;BME280;29079;41.930;25.558;2023-06-26T12:34:47;99161.97;;;25.87;75.55
7109;BME280;29079;41.930;25.558;2023-06-26T12:37:37;99161.34;;;25.68;74.93
7109;BME280;29079;41.930;25.558;2023-06-26T12:40:27;99158.88;;;25.54;76.05
7109;BME280;29079;41.930;25.558;2023-06-26T12:43:23;99152.31;;;25.39;75.59
7109;BME280;29079;41.930;25.558;2023-06-26T12:46:11;99150.00;;;26.05;74.22
7109;BME280;29079;41.930;25.558;2023-06-26T12:48:59;99154.06;;;25.45;76.31
7109;BME280;29079;41.930;25.558;2023-06-26T12:51:47;99090.03;;;25.12;74.49
7109;BME280;29079;41.930;25.558;2023-06-26T12:54:38;99156.69;;;25.68;74.78
7109;BME280;29079;41.930;25.558;2023-06-26T12:57:26;99148.56;;;26.02;73.83
7109;BME280;29079;41.930;25.558;2023-06-26T13:00:15;99148.34;;;26.04;72.60
7109;BME280;29079;41.930;25.558;2023-06-26T13:03:03;99153.16;;;26.14;73.41
7109;BME280;29079;41.930;25.558;2023-06-26T13:05:52;99158.13;;;26.00;74.16
7109;BME280;29079;41.930;25.558;2023-06-26T13:08:40;99167.97;;;26.18;72.50
7109;BME280;29079;41.930;25.558;2023-06-26T13:11:31;99167.25;;;25.77;72.40
7109;BME280;29079;41.930;25.558;2023-06-26T13:14:19;99156.63;;;25.80;74.42
7109;BME280;29079;41.930;25.558;2023-06-26T13:17:07;99162.59;;;25.77;74.87
7109;BME280;29079;41.930;25.558;2023-06-26T13:19:55;99170.06;;;25.82;75.37
7109;BME280;29079;41.930;25.558;2023-06-26T13:22:43;99176.06;;;25.96;74.50
7109;BME280;29079;41.930;25.558;2023-06-26T13:25:32;99173.19;;;25.45;75.85
7109;BME280;29079;41.930;25.558;2023-06-26T13:28:22;99171.31;;;25.22;78.82
7109;BME280;29079;41.930;25.558;2023-06-26T13:31:09;99171.34;;;24.98;81.30
7109;BME280;29079;41.930;25.558;2023-06-26T13:34:01;99152.03;;;24.99;80.63
7109;BME280;29079;41.930;25.558;2023-06-26T13:36:50;99165.25;;;25.19;79.85
7109;BME280;29079;41.930;25.558;2023-06-26T13:39:38;99158.00;;;25.25;80.64
7109;BME280;29079;41.930;25.558;2023-06-26T13:42:26;99162.81;;;25.06;79.76
7109;BME280;29079;41.930;25.558;2023-06-26T13:45:16;99161.34;;;25.27;77.96
7109;BME280;29079;41.930;25.558;2023-06-26T13:48:16;99163.53;;;25.01;80.95
7109;BME280;29079;41.930;25.558;2023-06-26T13:51:04;99161.03;;;25.00;81.76
7109;BME280;29079;41.930;25.558;2023-06-26T13:53:52;99146.81;;;24.74;81.88
7109;BME280;29079;41.930;25.558;2023-06-26T13:56:40;99159.38;;;24.99;80.28
7109;BME280;29079;41.930;25.558;2023-06-26T13:59:28;99153.22;;;24.92;79.92
7109;BME280;29079;41.930;25.558;2023-06-26T14:02:18;99156.50;;;25.17;80.59
7109;BME280;29079;41.930;25.558;2023-06-26T14:05:06;99162.06;;;25.11;81.78
7109;BME280;29079;41.930;25.558;2023-06-26T14:07:55;99172.44;;;24.97;82.77
7109;BME280;29079;41.930;25.558;2023-06-26T14:10:45;99172.06;;;25.05;82.06
7109;BME280;29079;41.930;25.558;2023-06-26T14:13:33;99179.44;;;24.81;82.05
7109;BME280;29079;41.930;25.558;2023-06-26T14:16:21;99176.81;;;25.10;81.70
7109;BME280;29079;41.930;25.558;2023-06-26T14:19:10;99169.09;;;25.07;80.60
7109;BME280;29079;41.930;25.558;2023-06-26T14:22:00;99171.97;;;25.00;81.29
7109;BME280;29079;41.930;25.558;2023-06-26T14:24:49;99181.81;;;24.89;81.47
7109;BME280;29079;41.930;25.558;2023-06-26T14:27:37;99181.22;;;24.87;81.41
7109;BME280;29079;41.930;25.558;2023-06-26T14:30:25;99168.53;;;24.81;81.53
7109;BME280;29079;41.930;25.558;2023-06-26T14:33:13;99164.94;;;25.04;81.48
7109;BME280;29079;41.930;25.558;2023-06-26T14:36:03;99145.25;;;24.90;80.42
7109;BME280;29079;41.930;25.558;2023-06-26T14:38:50;99160.78;;;25.13;79.48
7109;BME280;29079;41.930;25.558;2023-06-26T14:41:39;99154.91;;;24.81;79.13
7109;BME280;29079;41.930;25.558;2023-06-26T14:44:27;99153.19;;;25.03;78.56
7109;BME280;29079;41.930;25.558;2023-06-26T14:47:15;99145.63;;;24.94;78.99
7109;BME280;29079;41.930;25.558;2023-06-26T14:50:04;99085.41;;;24.60;79.28
7109;BME280;29079;41.930;25.558;2023-06-26T14:52:53;99132.22;;;24.92;79.17
7109;BME280;29079;41.930;25.558;2023-06-26T14:55:41;99123.84;;;25.11;79.72
7109;BME280;29079;41.930;25.558;2023-06-26T14:58:29;99118.81;;;24.91;80.28
7109;BME280;29079;41.930;25.558;2023-06-26T15:01:17;99123.47;;;24.78;79.57
7109;BME280;29079;41.930;25.558;2023-06-26T15:04:06;99123.41;;;25.02;80.17
7109;BME280;29079;41.930;25.558;2023-06-26T15:06:57;99111.06;;;25.11;79.26
7109;BME280;29079;41.930;25.558;2023-06-26T15:09:46;99117.00;;;25.08;79.60
7109;BME280;29079;41.930;25.558;2023-06-26T15:12:34;99117.38;;;25.00;80.45
7109;BME280;29079;41.930;25.558;2023-06-26T15:15:22;99119.97;;;24.95;80.33
7109;BME280;29079;41.930;25.558;2023-06-26T15:18:10;99127.19;;;25.13;80.86
7109;BME280;29079;41.930;25.558;2023-06-26T15:20:58;99126.03;;;24.97;80.45
7109;BME280;29079;41.930;25.558;2023-06-26T15:23:47;99125.44;;;24.95;80.43
7109;BME280;29079;41.930;25.558;2023-06-26T15:26:36;99133.75;;;25.00;79.88
7109;BME280;29079;41.930;25.558;2023-06-26T15:29:24;99139.69;;;24.97;78.29
7109;BME280;29079;41.930;25.558;2023-06-26T15:32:12;99125.44;;;25.07;78.19
7109;BME280;29079;41.930;25.558;2023-06-26T15:35:00;99131.56;;;25.14;78.09
7109;BME280;29079;41.930;25.558;2023-06-26T15:37:48;99130.84;;;25.18;77.39
7109;BME280;29079;41.930;25.558;2023-06-26T15:40:36;99126.78;;;25.21;76.45
7109;BME280;29079;41.930;25.558;2023-06-26T15:43:26;99133.38;;;25.08;76.68
7109;BME280;29079;41.930;25.558;2023-06-26T15:46:14;99073.91;;;25.10;77.36
7109;BME280;29079;41.930;25.558;2023-06-26T15:49:01;99128.81;;;25.37;75.64
7109;BME280;29079;41.930;25.558;2023-06-26T15:51:49;99125.09;;;25.44;77.05
7109;BME280;29079;41.930;25.558;2023-06-26T15:54:37;99130.44;;;25.27;76.06
7109;BME280;29079;41.930;25.558;2023-06-26T15:57:25;99125.63;;;25.17;77.12
7109;BME280;29079;41.930;25.558;2023-06-26T16:00:16;99128.78;;;24.97;77.04
7109;BME280;29079;41.930;25.558;2023-06-26T16:03:03;99130.16;;;25.11;76.95
7109;BME280;29079;41.930;25.558;2023-06-26T16:05:51;99139.69;;;24.97;76.09
7109;BME280;29079;41.930;25.558;2023-06-26T16:08:39;99136.25;;;24.90;76.43
7109;BME280;29079;41.930;25.558;2023-06-26T16:11:27;99139.72;;;24.85;75.72
7109;BME280;29079;41.930;25.558;2023-06-26T16:14:15;99149.06;;;24.89;75.68
7109;BME280;29079;41.930;25.558;2023-06-26T16:17:05;99143.25;;;24.85;77.13
7109;BME280;29079;41.930;25.558;2023-06-26T16:19:53;99149.47;;;24.69;76.75
7109;BME280;29079;41.930;25.558;2023-06-26T16:22:41;99164.59;;;24.89;76.66
7109;BME280;29079;41.930;25.558;2023-06-26T16:25:29;99208.75;;;24.62;79.44
7109;BME280;29079;41.930;25.558;2023-06-26T16:28:17;99249.03;;;23.38;87.38
7109;BME280;29079;41.930;25.558;2023-06-26T16:31:05;99282.31;;;22.71;97.74
7109;BME280;29079;41.930;25.558;2023-06-26T16:33:54;99281.06;;;22.67;100.00
7109;BME280;29079;41.930;25.558;2023-06-26T16:36:42;99274.88;;;23.04;100.00
7109;BME280;29079;41.930;25.558;2023-06-26T16:39:30;99274.97;;;21.63;100.00
